sensor_id;sensor_type;location;lat;lon;timestamp;P1;durP1;ratioP1;P2;durP2;ratioP2
20505;SDS011;10411;48.148;7.704;2023-03-19T00:01:46;13.77;;;13.07;;
20505;SDS011;10411;48.148;7.704;2023-03-19T00:04:12;14.20;;;13.40;;
20505;SDS011;10411;48.148;7.704;2023-03-19T00:06:38;13.70;;;13.00;;
20505;SDS011;10411;48.148;7.704;2023-03-19T00:09:04;13.77;;;13.07;;
20505;SDS011;10411;48.148;7.704;2023-03-19T00:11:29;13.80;;;13.10;;
20505;SDS011;10411;48.148;7.704;2023-03-19T00:13:56;14.10;;;13.20;;
20505;SDS011;10411;48.148;7.704;2023-03-19T00:16:22;15.10;;;14.20;;
20505;SDS011;10411;48.148;7.704;2023-03-19T00:18:48;15.77;;;14.77;;
20505;SDS011;10411;48.148;7.704;2023-03-19T00:21:13;14.80;;;14.00;;
20505;SDS011;10411;48.148;7.704;2023-03-19T00:23:40;15.23;;;14.33;;
20505;SDS011;10411;48.148;7.704;2023-03-19T00:26:06;14.23;;;13.47;;
20505;SDS011;10411;48.148;7.704;2023-03-19T00:28:32;14.00;;;13.20;;
20505;SDS011;10411;48.148;7.704;2023-03-19T00:31:05;13.63;;;12.93;;
20505;SDS011;10411;48.148;7.704;2023-03-19T00:33:31;13.70;;;13.00;;
20505;SDS011;10411;48.148;7.704;2023-03-19T00:35:57;13.50;;;12.80;;
20505;SDS011;10411;48.148;7.704;2023-03-19T00:38:23;13.17;;;12.53;;
20505;SDS011;10411;48.148;7.704;2023-03-19T00:40:49;13.70;;;13.00;;
20505;SDS011;10411;48.148;7.704;2023-03-19T00:43:15;13.17;;;12.50;;
20505;SDS011;10411;48.148;7.704;2023-03-19T00:45:41;14.20;;;13.40;;
20505;SDS011;10411;48.148;7.704;2023-03-19T00:48:07;14.00;;;13.30;;
20505;SDS011;10411;48.148;7.704;2023-03-19T00:50:33;14.00;;;13.20;;
20505;SDS011;10411;48.148;7.704;2023-03-19T00:52:59;14.10;;;13.20;;
20505;SDS011;10411;48.148;7.704;2023-03-19T00:55:25;13.50;;;12.70;;
20505;SDS011;10411;48.148;7.704;2023-03-19T00:57:51;13.60;;;12.90;;
20505;SDS011;10411;48.148;7.704;2023-03-19T01:00:18;14.07;;;13.30;;
20505;SDS011;10411;48.148;7.704;2023-03-19T01:02:44;14.10;;;13.20;;
20505;SDS011;10411;48.148;7.704;2023-03-19T01:05:11;13.83;;;13.03;;
20505;SDS011;10411;48.148;7.704;2023-03-19T01:07:37;13.60;;;12.80;;
20505;SDS011;10411;48.148;7.704;2023-03-19T01:10:03;14.00;;;13.20;;
20505;SDS011;10411;48.148;7.704;2023-03-19T01:12:30;13.30;;;12.60;;
20505;SDS011;10411;48.148;7.704;2023-03-19T01:14:56;13.63;;;12.93;;
20505;SDS011;10411;48.148;7.704;2023-03-19T01:17:22;13.40;;;12.53;;
20505;SDS011;10411;48.148;7.704;2023-03-19T01:19:48;13.77;;;13.07;;
20505;SDS011;10411;48.148;7.704;2023-03-19T01:22:14;13.80;;;12.90;;
20505;SDS011;10411;48.148;7.704;2023-03-19T01:24:41;14.03;;;13.33;;
20505;SDS011;10411;48.148;7.704;2023-03-19T01:27:07;13.60;;;12.90;;
20505;SDS011;10411;48.148;7.704;2023-03-19T01:29:34;13.87;;;13.07;;
20505;SDS011;10411;48.148;7.704;2023-03-19T01:32:00;13.50;;;12.80;;
20505;SDS011;10411;48.148;7.704;2023-03-19T01:34:26;13.50;;;12.80;;
20505;SDS011;10411;48.148;7.704;2023-03-19T01:36:52;13.70;;;12.90;;
20505;SDS011;10411;48.148;7.704;2023-03-19T01:39:18;13.47;;;12.77;;
20505;SDS011;10411;48.148;7.704;2023-03-19T01:41:44;14.10;;;13.30;;
20505;SDS011;10411;48.148;7.704;2023-03-19T01:46:51;14.00;;;13.30;;
20505;SDS011;10411;48.148;7.704;2023-03-19T01:49:17;13.67;;;12.97;;
20505;SDS011;10411;48.148;7.704;2023-03-19T01:51:44;14.00;;;13.23;;
20505;SDS011;10411;48.148;7.704;2023-03-19T01:54:13;13.73;;;12.93;;
20505;SDS011;10411;48.148;7.704;2023-03-19T01:56:40;13.70;;;13.00;;
20505;SDS011;10411;48.148;7.704;2023-03-19T01:59:26;13.80;;;13.10;;
20505;SDS011;10411;48.148;7.704;2023-03-19T02:01:57;13.90;;;13.20;;
20505;SDS011;10411;48.148;7.704;2023-03-19T02:04:24;13.83;;;13.13;;
20505;SDS011;10411;48.148;7.704;2023-03-19T02:06:52;13.77;;;13.07;;
20505;SDS011;10411;48.148;7.704;2023-03-19T02:09:18;13.37;;;12.67;;
20505;SDS011;10411;48.148;7.704;2023-03-19T02:11:45;13.67;;;12.97;;
20505;SDS011;10411;48.148;7.704;2023-03-19T02:14:11;13.70;;;13.00;;
20505;SDS011;10411;48.148;7.704;2023-03-19T02:16:37;13.80;;;13.00;;
20505;SDS011;10411;48.148;7.704;2023-03-19T02:19:03;13.90;;;13.20;;
20505;SDS011;10411;48.148;7.704;2023-03-19T02:21:30;13.53;;;12.83;;
20505;SDS011;10411;48.148;7.704;2023-03-19T02:24:16;13.60;;;12.97;;
20505;SDS011;10411;48.148;7.704;2023-03-19T02:26:44;13.87;;;12.97;;
20505;SDS011;10411;48.148;7.704;2023-03-19T02:29:10;14.00;;;13.20;;
20505;SDS011;10411;48.148;7.704;2023-03-19T02:31:36;13.13;;;12.50;;
20505;SDS011;10411;48.148;7.704;2023-03-19T02:36:36;13.40;;;12.73;;
20505;SDS011;10411;48.148;7.704;2023-03-19T02:39:05;13.27;;;12.57;;
20505;SDS011;10411;48.148;7.704;2023-03-19T02:41:32;13.13;;;12.43;;
20505;SDS011;10411;48.148;7.704;2023-03-19T02:43:59;13.67;;;12.97;;
20505;SDS011;10411;48.148;7.704;2023-03-19T02:46:27;12.50;;;11.90;;
20505;SDS011;10411;48.148;7.704;2023-03-19T02:48:53;13.00;;;12.30;;
20505;SDS011;10411;48.148;7.704;2023-03-19T02:51:19;12.70;;;12.10;;
20505;SDS011;10411;48.148;7.704;2023-03-19T02:53:45;12.83;;;12.23;;
20505;SDS011;10411;48.148;7.704;2023-03-19T02:56:11;13.20;;;12.60;;
20505;SDS011;10411;48.148;7.704;2023-03-19T02:58:37;13.20;;;12.50;;
20505;SDS011;10411;48.148;7.704;2023-03-19T03:01:03;13.07;;;12.43;;
20505;SDS011;10411;48.148;7.704;2023-03-19T03:03:30;13.73;;;13.03;;
20505;SDS011;10411;48.148;7.704;2023-03-19T03:05:56;13.80;;;13.10;;
20505;SDS011;10411;48.148;7.704;2023-03-19T03:08:22;13.70;;;13.00;;
20505;SDS011;10411;48.148;7.704;2023-03-19T03:10:48;14.50;;;13.67;;
20505;SDS011;10411;48.148;7.704;2023-03-19T03:13:14;14.33;;;13.60;;
20505;SDS011;10411;48.148;7.704;2023-03-19T03:15:40;14.10;;;13.30;;
20505;SDS011;10411;48.148;7.704;2023-03-19T03:18:06;14.47;;;13.67;;
20505;SDS011;10411;48.148;7.704;2023-03-19T03:20:32;14.00;;;13.27;;
20505;SDS011;10411;48.148;7.704;2023-03-19T03:22:58;14.13;;;13.43;;
20505;SDS011;10411;48.148;7.704;2023-03-19T03:25:24;14.27;;;13.47;;
20505;SDS011;10411;48.148;7.704;2023-03-19T03:27:50;14.47;;;13.67;;
20505;SDS011;10411;48.148;7.704;2023-03-19T03:30:17;14.03;;;13.27;;
20505;SDS011;10411;48.148;7.704;2023-03-19T03:32:43;14.13;;;13.33;;
20505;SDS011;10411;48.148;7.704;2023-03-19T03:35:09;14.07;;;13.27;;
20505;SDS011;10411;48.148;7.704;2023-03-19T03:37:35;14.07;;;13.27;;
20505;SDS011;10411;48.148;7.704;2023-03-19T03:40:02;14.50;;;13.70;;
20505;SDS011;10411;48.148;7.704;2023-03-19T03:42:32;15.23;;;14.07;;
20505;SDS011;10411;48.148;7.704;2023-03-19T03:44:58;15.07;;;14.07;;
20505;SDS011;10411;48.148;7.704;2023-03-19T03:47:24;13.93;;;13.13;;
20505;SDS011;10411;48.148;7.704;2023-03-19T03:49:50;14.70;;;13.90;;
20505;SDS011;10411;48.148;7.704;2023-03-19T03:52:16;14.40;;;13.50;;
20505;SDS011;10411;48.148;7.704;2023-03-19T03:54:42;14.00;;;13.20;;
20505;SDS011;10411;48.148;7.704;2023-03-19T03:57:08;14.40;;;13.60;;
20505;SDS011;10411;48.148;7.704;2023-03-19T03:59:34;13.80;;;13.10;;
20505;SDS011;10411;48.148;7.704;2023-03-19T04:02:00;13.67;;;12.97;;
20505;SDS011;10411;48.148;7.704;2023-03-19T04:04:26;14.03;;;13.23;;
20505;SDS011;10411;48.148;7.704;2023-03-19T04:06:52;13.73;;;12.93;;
20505;SDS011;10411;48.148;7.704;2023-03-19T04:09:18;13.90;;;13.10;;
20505;SDS011;10411;48.148;7.704;2023-03-19T04:11:44;13.80;;;12.90;;
20505;SDS011;10411;48.148;7.704;2023-03-19T04:14:10;13.53;;;12.83;;
20505;SDS011;10411;48.148;7.704;2023-03-19T04:16:36;14.23;;;13.33;;
20505;SDS011;10411;48.148;7.704;2023-03-19T04:19:02;13.87;;;13.17;;
20505;SDS011;10411;48.148;7.704;2023-03-19T04:21:28;13.37;;;12.73;;
20505;SDS011;10411;48.148;7.704;2023-03-19T04:23:55;13.87;;;13.17;;
20505;SDS011;10411;48.148;7.704;2023-03-19T04:26:21;13.67;;;12.80;;
20505;SDS011;10411;48.148;7.704;2023-03-19T04:28:47;13.80;;;13.10;;
20505;SDS011;10411;48.148;7.704;2023-03-19T04:31:13;13.67;;;12.90;;
20505;SDS011;10411;48.148;7.704;2023-03-19T04:33:39;14.00;;;13.20;;
20505;SDS011;10411;48.148;7.704;2023-03-19T04:36:05;13.60;;;12.90;;
20505;SDS011;10411;48.148;7.704;2023-03-19T04:38:39;14.27;;;13.57;;
20505;SDS011;10411;48.148;7.704;2023-03-19T04:41:08;14.20;;;13.50;;
20505;SDS011;10411;48.148;7.704;2023-03-19T04:43:37;13.73;;;13.03;;
20505;SDS011;10411;48.148;7.704;2023-03-19T04:46:03;13.70;;;12.90;;
20505;SDS011;10411;48.148;7.704;2023-03-19T04:48:34;13.97;;;13.20;;
20505;SDS011;10411;48.148;7.704;2023-03-19T04:51:10;13.43;;;12.70;;
20505;SDS011;10411;48.148;7.704;2023-03-19T04:53:48;13.13;;;12.50;;
20505;SDS011;10411;48.148;7.704;2023-03-19T04:56:29;13.23;;;12.57;;
20505;SDS011;10411;48.148;7.704;2023-03-19T04:59:03;12.83;;;12.20;;
20505;SDS011;10411;48.148;7.704;2023-03-19T05:01:39;13.20;;;12.50;;
20505;SDS011;10411;48.148;7.704;2023-03-19T05:04:06;13.00;;;12.40;;
20505;SDS011;10411;48.148;7.704;2023-03-19T05:06:35;13.43;;;12.73;;
20505;SDS011;10411;48.148;7.704;2023-03-19T05:09:13;14.00;;;13.20;;
20505;SDS011;10411;48.148;7.704;2023-03-19T05:11:42;13.57;;;12.87;;
20505;SDS011;10411;48.148;7.704;2023-03-19T05:14:10;13.70;;;12.90;;
20505;SDS011;10411;48.148;7.704;2023-03-19T05:16:39;13.60;;;12.90;;
20505;SDS011;10411;48.148;7.704;2023-03-19T05:19:07;13.80;;;13.00;;
20505;SDS011;10411;48.148;7.704;2023-03-19T05:21:37;13.30;;;12.70;;
20505;SDS011;10411;48.148;7.704;2023-03-19T05:24:06;13.60;;;12.90;;
20505;SDS011;10411;48.148;7.704;2023-03-19T05:26:39;13.40;;;12.70;;
20505;SDS011;10411;48.148;7.704;2023-03-19T05:32:22;13.60;;;12.90;;
20505;SDS011;10411;48.148;7.704;2023-03-19T05:34:56;14.20;;;13.40;;
20505;SDS011;10411;48.148;7.704;2023-03-19T05:42:50;13.80;;;13.10;;
20505;SDS011;10411;48.148;7.704;2023-03-19T05:45:22;13.77;;;12.70;;
20505;SDS011;10411;48.148;7.704;2023-03-19T05:48:06;13.70;;;13.00;;
20505;SDS011;10411;48.148;7.704;2023-03-19T05:50:38;13.70;;;12.80;;
20505;SDS011;10411;48.148;7.704;2023-03-19T05:53:07;13.90;;;13.10;;
20505;SDS011;10411;48.148;7.704;2023-03-19T05:55:37;14.17;;;13.37;;
20505;SDS011;10411;48.148;7.704;2023-03-19T05:58:19;14.17;;;13.27;;
20505;SDS011;10411;48.148;7.704;2023-03-19T06:00:55;13.83;;;12.93;;
20505;SDS011;10411;48.148;7.704;2023-03-19T06:03:29;13.60;;;12.90;;
20505;SDS011;10411;48.148;7.704;2023-03-19T06:05:59;13.80;;;13.00;;
20505;SDS011;10411;48.148;7.704;2023-03-19T06:08:36;13.03;;;12.43;;
20505;SDS011;10411;48.148;7.704;2023-03-19T06:11:05;13.33;;;12.60;;
20505;SDS011;10411;48.148;7.704;2023-03-19T06:13:55;13.17;;;12.47;;
20505;SDS011;10411;48.148;7.704;2023-03-19T06:16:43;13.50;;;12.80;;
20505;SDS011;10411;48.148;7.704;2023-03-19T06:19:17;13.60;;;12.90;;
20505;SDS011;10411;48.148;7.704;2023-03-19T06:21:52;13.93;;;13.13;;
20505;SDS011;10411;48.148;7.704;2023-03-19T06:24:30;13.63;;;12.93;;
20505;SDS011;10411;48.148;7.704;2023-03-19T06:27:03;14.23;;;13.43;;
20505;SDS011;10411;48.148;7.704;2023-03-19T06:29:36;13.57;;;12.83;;
20505;SDS011;10411;48.148;7.704;2023-03-19T06:32:33;13.50;;;12.70;;
20505;SDS011;10411;48.148;7.704;2023-03-19T06:35:08;17.33;;;16.03;;
20505;SDS011;10411;48.148;7.704;2023-03-19T06:37:42;15.50;;;14.57;;
20505;SDS011;10411;48.148;7.704;2023-03-19T06:40:11;14.40;;;13.50;;
20505;SDS011;10411;48.148;7.704;2023-03-19T06:42:44;14.00;;;13.20;;
20505;SDS011;10411;48.148;7.704;2023-03-19T06:45:10;13.33;;;12.63;;
20505;SDS011;10411;48.148;7.704;2023-03-19T06:47:47;13.23;;;12.53;;
20505;SDS011;10411;48.148;7.704;2023-03-19T06:50:23;13.63;;;12.73;;
20505;SDS011;10411;48.148;7.704;2023-03-19T06:52:51;13.17;;;12.47;;
20505;SDS011;10411;48.148;7.704;2023-03-19T06:55:22;13.20;;;12.50;;
20505;SDS011;10411;48.148;7.704;2023-03-19T06:57:50;13.20;;;12.50;;
20505;SDS011;10411;48.148;7.704;2023-03-19T07:00:19;12.90;;;12.20;;
20505;SDS011;10411;48.148;7.704;2023-03-19T07:02:45;13.20;;;12.30;;
20505;SDS011;10411;48.148;7.704;2023-03-19T07:05:11;13.40;;;12.60;;
20505;SDS011;10411;48.148;7.704;2023-03-19T07:07:40;13.57;;;12.77;;
20505;SDS011;10411;48.148;7.704;2023-03-19T07:10:19;14.13;;;13.27;;
20505;SDS011;10411;48.148;7.704;2023-03-19T07:12:45;13.60;;;12.90;;
20505;SDS011;10411;48.148;7.704;2023-03-19T07:15:11;13.73;;;12.97;;
20505;SDS011;10411;48.148;7.704;2023-03-19T07:17:37;14.17;;;13.27;;
20505;SDS011;10411;48.148;7.704;2023-03-19T07:20:20;14.17;;;13.47;;
20505;SDS011;10411;48.148;7.704;2023-03-19T07:22:49;13.50;;;12.80;;
20505;SDS011;10411;48.148;7.704;2023-03-19T07:25:18;13.97;;;13.27;;
20505;SDS011;10411;48.148;7.704;2023-03-19T07:30:58;13.63;;;12.80;;
20505;SDS011;10411;48.148;7.704;2023-03-19T07:33:26;13.40;;;12.70;;
20505;SDS011;10411;48.148;7.704;2023-03-19T07:36:01;12.47;;;11.87;;
20505;SDS011;10411;48.148;7.704;2023-03-19T07:38:50;13.20;;;12.47;;
20505;SDS011;10411;48.148;7.704;2023-03-19T07:41:19;13.53;;;12.80;;
20505;SDS011;10411;48.148;7.704;2023-03-19T07:44:00;13.30;;;12.60;;
20505;SDS011;10411;48.148;7.704;2023-03-19T07:46:30;13.87;;;13.07;;
20505;SDS011;10411;48.148;7.704;2023-03-19T07:52:00;13.37;;;12.67;;
20505;SDS011;10411;48.148;7.704;2023-03-19T07:54:45;13.00;;;12.10;;
20505;SDS011;10411;48.148;7.704;2023-03-19T08:00:00;13.80;;;13.00;;
20505;SDS011;10411;48.148;7.704;2023-03-19T08:02:35;13.40;;;12.70;;
20505;SDS011;10411;48.148;7.704;2023-03-19T08:05:09;13.77;;;12.97;;
20505;SDS011;10411;48.148;7.704;2023-03-19T08:07:52;13.10;;;12.30;;
20505;SDS011;10411;48.148;7.704;2023-03-19T08:13:32;13.37;;;12.67;;
20505;SDS011;10411;48.148;7.704;2023-03-19T08:19:19;14.57;;;13.47;;
20505;SDS011;10411;48.148;7.704;2023-03-19T08:22:01;14.00;;;13.30;;
20505;SDS011;10411;48.148;7.704;2023-03-19T08:25:28;13.33;;;12.60;;
20505;SDS011;10411;48.148;7.704;2023-03-19T08:27:49;13.57;;;12.87;;
20505;SDS011;10411;48.148;7.704;2023-03-19T08:30:15;13.10;;;12.40;;
20505;SDS011;10411;48.148;7.704;2023-03-19T08:32:44;14.03;;;13.23;;
20505;SDS011;10411;48.148;7.704;2023-03-19T08:35:13;13.97;;;13.10;;
20505;SDS011;10411;48.148;7.704;2023-03-19T08:37:39;13.97;;;13.17;;
20505;SDS011;10411;48.148;7.704;2023-03-19T08:40:08;14.00;;;13.20;;
20505;SDS011;10411;48.148;7.704;2023-03-19T08:42:35;14.13;;;13.13;;
20505;SDS011;10411;48.148;7.704;2023-03-19T08:45:05;13.70;;;12.90;;
20505;SDS011;10411;48.148;7.704;2023-03-19T08:47:32;13.57;;;12.77;;
20505;SDS011;10411;48.148;7.704;2023-03-19T08:50:00;14.00;;;13.17;;
20505;SDS011;10411;48.148;7.704;2023-03-19T08:55:27;14.53;;;13.60;;
20505;SDS011;10411;48.148;7.704;2023-03-19T09:01:49;14.10;;;13.30;;
20505;SDS011;10411;48.148;7.704;2023-03-19T09:04:36;14.20;;;13.30;;
20505;SDS011;10411;48.148;7.704;2023-03-19T09:07:26;13.27;;;12.50;;
20505;SDS011;10411;48.148;7.704;2023-03-19T09:10:04;13.70;;;12.90;;
20505;SDS011;10411;48.148;7.704;2023-03-19T09:12:48;13.63;;;12.83;;
20505;SDS011;10411;48.148;7.704;2023-03-19T09:18:33;13.73;;;12.67;;
20505;SDS011;10411;48.148;7.704;2023-03-19T09:21:11;14.07;;;13.20;;
20505;SDS011;10411;48.148;7.704;2023-03-19T09:23:58;13.17;;;12.47;;
20505;SDS011;10411;48.148;7.704;2023-03-19T09:26:54;13.40;;;12.63;;
20505;SDS011;10411;48.148;7.704;2023-03-19T09:33:06;14.20;;;13.40;;
20505;SDS011;10411;48.148;7.704;2023-03-19T09:41:12;14.20;;;13.40;;
20505;SDS011;10411;48.148;7.704;2023-03-19T09:49:33;14.43;;;13.67;;
20505;SDS011;10411;48.148;7.704;2023-03-19T09:52:51;14.67;;;13.80;;
20505;SDS011;10411;48.148;7.704;2023-03-19T10:13:43;14.13;;;13.40;;
20505;SDS011;10411;48.148;7.704;2023-03-19T11:03:56;13.40;;;12.70;;
20505;SDS011;10411;48.148;7.704;2023-03-19T11:09:17;12.80;;;12.10;;
20505;SDS011;10411;48.148;7.704;2023-03-19T11:11:45;12.60;;;12.00;;
20505;SDS011;10411;48.148;7.704;2023-03-19T11:14:17;13.10;;;12.50;;
20505;SDS011;10411;48.148;7.704;2023-03-19T11:47:43;14.00;;;13.30;;
20505;SDS011;10411;48.148;7.704;2023-03-19T11:55:30;13.00;;;12.40;;
20505;SDS011;10411;48.148;7.704;2023-03-19T12:23:11;12.33;;;11.73;;
20505;SDS011;10411;48.148;7.704;2023-03-19T13:26:45;13.80;;;13.10;;
20505;SDS011;10411;48.148;7.704;2023-03-19T13:29:19;13.50;;;12.70;;
20505;SDS011;10411;48.148;7.704;2023-03-19T13:32:06;13.60;;;12.90;;
20505;SDS011;10411;48.148;7.704;2023-03-19T13:34:42;13.10;;;12.40;;
20505;SDS011;10411;48.148;7.704;2023-03-19T13:37:21;13.40;;;12.80;;
20505;SDS011;10411;48.148;7.704;2023-03-19T13:39:51;14.33;;;13.50;;
20505;SDS011;10411;48.148;7.704;2023-03-19T13:45:03;14.20;;;13.50;;
20505;SDS011;10411;48.148;7.704;2023-03-19T13:47:49;13.73;;;13.03;;
20505;SDS011;10411;48.148;7.704;2023-03-19T13:50:28;13.17;;;12.57;;
20505;SDS011;10411;48.148;7.704;2023-03-19T13:53:10;13.30;;;12.60;;
20505;SDS011;10411;48.148;7.704;2023-03-19T13:58:24;13.60;;;12.90;;
20505;SDS011;10411;48.148;7.704;2023-03-19T14:03:53;13.60;;;12.80;;
20505;SDS011;10411;48.148;7.704;2023-03-19T14:06:39;13.40;;;12.80;;
20505;SDS011;10411;48.148;7.704;2023-03-19T14:12:40;13.50;;;12.90;;
20505;SDS011;10411;48.148;7.704;2023-03-19T14:15:23;13.30;;;12.70;;
20505;SDS011;10411;48.148;7.704;2023-03-19T14:25:25;13.33;;;12.73;;
20505;SDS011;10411;48.148;7.704;2023-03-19T14:27:56;13.43;;;12.73;;
20505;SDS011;10411;48.148;7.704;2023-03-19T14:30:37;13.43;;;12.63;;
20505;SDS011;10411;48.148;7.704;2023-03-19T14:33:24;14.63;;;13.83;;
20505;SDS011;10411;48.148;7.704;2023-03-19T14:35:54;14.47;;;13.67;;
20505;SDS011;10411;48.148;7.704;2023-03-19T14:38:37;14.20;;;13.40;;
20505;SDS011;10411;48.148;7.704;2023-03-19T14:41:09;13.80;;;13.10;;
20505;SDS011;10411;48.148;7.704;2023-03-19T14:46:32;13.10;;;12.50;;
20505;SDS011;10411;48.148;7.704;2023-03-19T14:54:46;13.13;;;12.53;;
20505;SDS011;10411;48.148;7.704;2023-03-19T14:57:17;12.60;;;12.00;;
20505;SDS011;10411;48.148;7.704;2023-03-19T14:59:49;12.70;;;12.10;;
20505;SDS011;10411;48.148;7.704;2023-03-19T15:04:52;12.50;;;11.90;;
20505;SDS011;10411;48.148;7.704;2023-03-19T15:07:29;12.40;;;11.80;;
20505;SDS011;10411;48.148;7.704;2023-03-19T15:10:44;12.87;;;12.27;;
20505;SDS011;10411;48.148;7.704;2023-03-19T15:12:54;12.90;;;12.30;;
20505;SDS011;10411;48.148;7.704;2023-03-19T15:18:21;12.50;;;11.90;;
20505;SDS011;10411;48.148;7.704;2023-03-19T15:20:52;12.40;;;11.80;;
20505;SDS011;10411;48.148;7.704;2023-03-19T15:23:39;12.80;;;12.20;;
20505;SDS011;10411;48.148;7.704;2023-03-19T15:32:37;13.30;;;12.70;;
20505;SDS011;10411;48.148;7.704;2023-03-19T15:35:13;13.40;;;12.80;;
20505;SDS011;10411;48.148;7.704;2023-03-19T15:37:49;13.33;;;12.53;;
20505;SDS011;10411;48.148;7.704;2023-03-19T15:43:13;13.43;;;12.83;;
20505;SDS011;10411;48.148;7.704;2023-03-19T15:45:59;13.10;;;12.50;;
20505;SDS011;10411;48.148;7.704;2023-03-19T15:57:24;13.20;;;12.60;;
20505;SDS011;10411;48.148;7.704;2023-03-19T15:59:53;13.43;;;12.83;;
20505;SDS011;10411;48.148;7.704;2023-03-19T16:02:25;14.10;;;13.30;;
20505;SDS011;10411;48.148;7.704;2023-03-19T16:05:16;14.70;;;13.90;;
20505;SDS011;10411;48.148;7.704;2023-03-19T16:07:51;13.63;;;12.93;;
20505;SDS011;10411;48.148;7.704;2023-03-19T16:10:32;13.90;;;13.20;;
20505;SDS011;10411;48.148;7.704;2023-03-19T16:12:59;13.37;;;12.67;;
20505;SDS011;10411;48.148;7.704;2023-03-19T16:15:42;14.13;;;13.43;;
20505;SDS011;10411;48.148;7.704;2023-03-19T16:20:43;14.57;;;13.77;;
20505;SDS011;10411;48.148;7.704;2023-03-19T16:23:16;14.60;;;13.80;;
20505;SDS011;10411;48.148;7.704;2023-03-19T16:26:01;13.87;;;13.17;;
20505;SDS011;10411;48.148;7.704;2023-03-19T16:28:32;14.63;;;13.83;;
20505;SDS011;10411;48.148;7.704;2023-03-19T16:31:13;14.10;;;13.40;;
20505;SDS011;10411;48.148;7.704;2023-03-19T16:33:40;13.70;;;13.00;;
20505;SDS011;10411;48.148;7.704;2023-03-19T16:36:29;13.40;;;12.70;;
20505;SDS011;10411;48.148;7.704;2023-03-19T16:48:22;14.03;;;13.23;;
20505;SDS011;10411;48.148;7.704;2023-03-19T16:50:48;14.27;;;13.57;;
20505;SDS011;10411;48.148;7.704;2023-03-19T16:53:25;14.30;;;13.47;;
20505;SDS011;10411;48.148;7.704;2023-03-19T16:56:17;14.07;;;13.37;;
20505;SDS011;10411;48.148;7.704;2023-03-19T16:59:05;13.73;;;13.03;;
20505;SDS011;10411;48.148;7.704;2023-03-19T17:04:58;13.47;;;12.77;;
20505;SDS011;10411;48.148;7.704;2023-03-19T17:10:34;13.10;;;12.50;;
20505;SDS011;10411;48.148;7.704;2023-03-19T17:13:03;13.83;;;13.13;;
20505;SDS011;10411;48.148;7.704;2023-03-19T17:18:57;13.30;;;12.60;;
20505;SDS011;10411;48.148;7.704;2023-03-19T17:24:43;14.30;;;13.50;;
20505;SDS011;10411;48.148;7.704;2023-03-19T17:27:25;13.60;;;12.90;;
20505;SDS011;10411;48.148;7.704;2023-03-19T17:30:12;12.60;;;12.00;;
20505;SDS011;10411;48.148;7.704;2023-03-19T17:45:10;12.10;;;11.50;;
20505;SDS011;10411;48.148;7.704;2023-03-19T17:47:37;11.60;;;11.00;;
20505;SDS011;10411;48.148;7.704;2023-03-19T17:50:27;11.80;;;11.30;;
20505;SDS011;10411;48.148;7.704;2023-03-19T17:52:58;12.40;;;11.80;;
20505;SDS011;10411;48.148;7.704;2023-03-19T17:56:24;11.70;;;11.10;;
20505;SDS011;10411;48.148;7.704;2023-03-19T18:07:47;11.77;;;11.27;;
20505;SDS011;10411;48.148;7.704;2023-03-19T18:10:20;11.43;;;10.93;;
20505;SDS011;10411;48.148;7.704;2023-03-19T18:45:00;11.83;;;11.33;;
20505;SDS011;10411;48.148;7.704;2023-03-19T18:47:32;11.50;;;11.00;;
20505;SDS011;10411;48.148;7.704;2023-03-19T18:50:17;11.83;;;11.30;;
20505;SDS011;10411;48.148;7.704;2023-03-19T18:53:01;11.60;;;11.10;;
20505;SDS011;10411;48.148;7.704;2023-03-19T18:56:04;11.50;;;11.00;;
20505;SDS011;10411;48.148;7.704;2023-03-19T19:05:19;11.93;;;11.33;;
20505;SDS011;10411;48.148;7.704;2023-03-19T19:10:48;13.10;;;12.40;;
20505;SDS011;10411;48.148;7.704;2023-03-19T19:16:29;13.00;;;12.30;;
20505;SDS011;10411;48.148;7.704;2023-03-19T19:19:26;12.50;;;11.80;;
20505;SDS011;10411;48.148;7.704;2023-03-19T19:25:24;12.90;;;12.30;;
20505;SDS011;10411;48.148;7.704;2023-03-19T19:28:23;13.47;;;12.60;;
20505;SDS011;10411;48.148;7.704;2023-03-19T19:34:23;11.60;;;10.90;;
20505;SDS011;10411;48.148;7.704;2023-03-19T19:36:56;13.10;;;12.40;;
20505;SDS011;10411;48.148;7.704;2023-03-19T19:39:40;13.10;;;12.40;;
20505;SDS011;10411;48.148;7.704;2023-03-19T19:42:14;13.53;;;12.73;;
20505;SDS011;10411;48.148;7.704;2023-03-19T19:45:06;11.50;;;10.90;;
20505;SDS011;10411;48.148;7.704;2023-03-19T19:47:55;11.40;;;10.90;;
20505;SDS011;10411;48.148;7.704;2023-03-19T19:50:42;11.80;;;11.20;;
20505;SDS011;10411;48.148;7.704;2023-03-19T19:53:44;11.70;;;11.10;;
20505;SDS011;10411;48.148;7.704;2023-03-19T19:58:44;13.90;;;13.20;;
20505;SDS011;10411;48.148;7.704;2023-03-19T20:01:20;14.20;;;13.40;;
20505;SDS011;10411;48.148;7.704;2023-03-19T20:03:50;12.93;;;12.00;;
20505;SDS011;10411;48.148;7.704;2023-03-19T20:17:48;12.80;;;12.20;;
20505;SDS011;10411;48.148;7.704;2023-03-19T20:20:33;12.70;;;12.10;;
20505;SDS011;10411;48.148;7.704;2023-03-19T20:23:22;12.60;;;12.00;;
20505;SDS011;10411;48.148;7.704;2023-03-19T20:34:11;12.47;;;11.87;;
20505;SDS011;10411;48.148;7.704;2023-03-19T20:37:00;12.10;;;11.50;;
20505;SDS011;10411;48.148;7.704;2023-03-19T20:45:38;11.53;;;11.03;;
20505;SDS011;10411;48.148;7.704;2023-03-19T20:48:16;11.87;;;11.27;;
20505;SDS011;10411;48.148;7.704;2023-03-19T20:50:45;11.77;;;11.07;;
20505;SDS011;10411;48.148;7.704;2023-03-19T20:53:17;12.03;;;11.43;;
20505;SDS011;10411;48.148;7.704;2023-03-19T20:55:45;12.20;;;11.60;;
20505;SDS011;10411;48.148;7.704;2023-03-19T20:58:37;11.50;;;10.90;;
20505;SDS011;10411;48.148;7.704;2023-03-19T21:01:20;11.27;;;10.77;;
20505;SDS011;10411;48.148;7.704;2023-03-19T21:03:55;10.80;;;10.30;;
20505;SDS011;10411;48.148;7.704;2023-03-19T21:06:45;12.10;;;11.50;;
20505;SDS011;10411;48.148;7.704;2023-03-19T21:09:22;12.00;;;11.50;;
20505;SDS011;10411;48.148;7.704;2023-03-19T21:11:52;12.00;;;11.43;;
20505;SDS011;10411;48.148;7.704;2023-03-19T21:18:04;11.97;;;11.40;;
20505;SDS011;10411;48.148;7.704;2023-03-19T21:23:37;13.00;;;12.30;;
20505;SDS011;10411;48.148;7.704;2023-03-19T21:26:24;13.00;;;12.30;;
20505;SDS011;10411;48.148;7.704;2023-03-19T21:29:09;12.70;;;12.10;;
20505;SDS011;10411;48.148;7.704;2023-03-19T21:32:01;13.20;;;12.50;;
20505;SDS011;10411;48.148;7.704;2023-03-19T21:38:07;14.17;;;13.37;;
20505;SDS011;10411;48.148;7.704;2023-03-19T21:47:32;15.10;;;14.20;;
20505;SDS011;10411;48.148;7.704;2023-03-19T21:50:01;14.87;;;13.97;;
20505;SDS011;10411;48.148;7.704;2023-03-19T22:19:33;13.50;;;12.83;;
20505;SDS011;10411;48.148;7.704;2023-03-19T22:22:10;13.43;;;12.83;;
20505;SDS011;10411;48.148;7.704;2023-03-19T22:24:55;14.00;;;13.30;;
20505;SDS011;10411;48.148;7.704;2023-03-19T22:27:42;13.83;;;13.20;;
20505;SDS011;10411;48.148;7.704;2023-03-19T22:33:50;14.23;;;13.47;;
20505;SDS011;10411;48.148;7.704;2023-03-19T22:36:42;13.90;;;13.20;;
20505;SDS011;10411;48.148;7.704;2023-03-19T22:39:11;13.67;;;12.97;;
20505;SDS011;10411;48.148;7.704;2023-03-19T22:41:44;13.67;;;12.97;;
20505;SDS011;10411;48.148;7.704;2023-03-19T22:44:17;13.80;;;13.10;;
20505;SDS011;10411;48.148;7.704;2023-03-19T22:46:44;14.13;;;13.43;;